Time,TemperatureF,DewpointF,PressureIn,WindDirection,WindDirectionDegrees,WindSpeedMPH,WindSpeedGustMPH,Humidity,HourlyPrecipIn,Conditions,Clouds,dailyrainin,SoftwareType,DateUTC
2013-09-01 00:00:00,73.1,66.2,29.94,SSE,158,1.0,3.0,79,0.00,,---,0.00,VWS V14.01,2013-09-01 07:00:00,
2013-09-01 00:30:00,73.3,66.0,29.94,SSE,158,1.0,5.0,78,0.00,,---,0.00,VWS V14.01,2013-09-01 07:30:00,
2013-09-01 01:00:00,72.6,65.3,29.93,SSE,158,1.0,4.0,78,0.00,,---,0.00,VWS V14.01,2013-09-01 08:00:00,
2013-09-01 01:30:00,72.1,65.2,29.93,SSE,158,2.0,4.0,79,0.00,,---,0.00,VWS V14.01,2013-09-01 08:30:00,
2013-09-01 02:00:00,71.6,65.1,29.93,SSE,158,1.0,3.0,80,0.00,,---,0.00,VWS V14.01,2013-09-01 09:00:00,
2013-09-01 02:30:00,71.5,65.0,29.92,SSE,158,1.0,3.0,80,0.00,,---,0.00,VWS V14.01,2013-09-01 09:30:00,
2013-09-01 03:00:00,71.8,65.7,29.92,SSE,158,1.0,4.0,81,0.00,,---,0.00,VWS V14.01,2013-09-01 10:00:00,
2013-09-01 03:30:00,71.5,66.1,29.92,SSE,158,1.0,4.0,83,0.00,,---,0.00,VWS V14.01,2013-09-01 10:30:00,
2013-09-01 04:00:00,71.3,65.9,29.91,SSE,158,0.0,2.0,83,0.00,,---,0.00,VWS V14.01,2013-09-01 11:00:00,
2013-09-01 04:30:00,70.9,65.1,29.92,SSE,158,0.0,2.0,82,0.00,,---,0.00,VWS V14.01,2013-09-01 11:30:00,
2013-09-01 05:00:00,71.0,65.6,29.92,SSE,158,1.0,3.0,83,0.00,,---,0.00,VWS V14.01,2013-09-01 12:00:00,
2013-09-01 05:30:00,70.6,65.2,29.92,SSE,158,0.0,2.0,83,0.00,,---,0.00,VWS V14.01,2013-09-01 12:30:00,
2013-09-01 06:00:00,70.2,64.4,29.93,SSE,158,0.0,3.0,82,0.00,,---,0.00,VWS V14.01,2013-09-01 13:00:00,
2013-09-01 06:30:00,69.7,64.3,29.93,SSE,158,0.0,1.0,83,0.00,,---,0.00,VWS V14.01,2013-09-01 13:30:00,
2013-09-01 07:00:00,69.4,64.4,29.93,SSE,158,0.0,1.0,84,0.00,,---,0.00,VWS V14.01,2013-09-01 14:00:00,
2013-09-01 07:30:00,71.2,66.1,29.94,SSE,158,0.0,1.0,84,0.00,,---,0.00,VWS V14.01,2013-09-01 14:30:00,
2013-09-01 08:00:00,74.7,68.8,29.94,NNW,338,1.0,5.0,82,0.00,,---,0.00,VWS V14.01,2013-09-01 15:00:00,
2013-09-01 08:30:00,77.4,69.6,29.94,NW,315,3.0,7.0,77,0.00,,---,0.00,VWS V14.01,2013-09-01 15:30:00,
2013-09-01 09:00:00,79.4,70.0,29.94,West,270,2.0,5.0,73,0.00,,---,0.00,VWS V14.01,2013-09-01 16:00:00,
2013-09-01 09:30:00,80.5,69.4,29.94,South,180,4.0,9.0,69,0.00,,---,0.00,VWS V14.01,2013-09-01 16:30:00,
2013-09-01 10:00:00,81.3,69.7,29.94,South,180,4.0,9.0,68,0.00,,---,0.00,VWS V14.01,2013-09-01 17:00:00,
2013-09-01 10:30:00,82.3,69.8,29.94,South,180,5.0,9.0,66,0.00,,---,0.00,VWS V14.01,2013-09-01 17:30:00,
2013-09-01 11:00:00,82.8,70.7,29.93,South,180,5.0,11.0,67,0.00,,---,0.00,VWS V14.01,2013-09-01 18:00:00,
2013-09-01 11:30:00,84.3,70.8,29.93,South,180,6.0,11.0,64,0.00,,---,0.00,VWS V14.01,2013-09-01 18:30:00,
2013-09-01 12:00:00,83.9,70.4,29.92,South,180,7.0,12.0,64,0.00,,---,0.00,VWS V14.01,2013-09-01 19:00:00,
2013-09-01 12:30:00,83.9,71.8,29.92,South,180,7.0,13.0,67,0.00,,---,0.00,VWS V14.01,2013-09-01 19:30:00,
2013-09-01 13:00:00,84.7,71.6,29.91,SSW,202,8.0,14.0,65,0.00,,---,0.00,VWS V14.01,2013-09-01 20:00:00,
2013-09-01 13:30:00,85.8,72.7,29.91,SSW,202,8.0,17.0,65,0.00,,---,0.00,VWS V14.01,2013-09-01 20:30:00,
2013-09-01 14:00:00,86.4,72.8,29.91,SSW,202,8.0,15.0,64,0.00,,---,0.00,VWS V14.01,2013-09-01 21:00:00,
2013-09-01 14:30:00,87.9,73.3,29.89,South,180,6.0,12.0,62,0.00,,---,0.00,VWS V14.01,2013-09-01 21:30:00,
2013-09-01 15:00:00,88.9,72.7,29.88,South,180,6.0,13.0,59,0.00,,---,0.00,VWS V14.01,2013-09-01 22:00:00,
2013-09-01 15:30:00,90.7,72.9,29.87,South,180,6.0,13.0,56,0.00,,---,0.00,VWS V14.01,2013-09-01 22:30:00,
2013-09-01 16:00:00,88.6,71.9,29.86,West,270,8.0,15.0,58,0.00,,---,0.00,VWS V14.01,2013-09-01 23:00:00,
2013-09-01 16:30:00,87.0,71.9,29.86,West,270,8.0,15.0,61,0.00,,---,0.00,VWS V14.01,2013-09-01 23:30:00,
2013-09-01 17:00:00,84.8,71.7,29.86,West,270,7.0,14.0,65,0.00,,---,0.00,VWS V14.01,2013-09-02 00:00:00,
2013-09-01 17:30:00,84.2,71.2,29.86,West,270,7.0,15.0,65,0.00,,---,0.00,VWS V14.01,2013-09-02 00:30:00,
2013-09-01 18:00:00,81.9,70.7,29.86,West,270,8.0,16.0,69,0.00,,---,0.00,VWS V14.01,2013-09-02 01:00:00,
2013-09-01 18:30:00,80.1,70.3,29.86,West,270,7.0,13.0,72,0.00,,---,0.00,VWS V14.01,2013-09-02 01:30:00,
2013-09-01 19:00:00,79.2,69.8,29.87,West,270,6.0,12.0,73,0.00,,---,0.00,VWS V14.01,2013-09-02 02:00:00,
2013-09-01 19:30:00,77.9,70.1,29.88,WNW,292,6.0,11.0,77,0.00,,---,0.00,VWS V14.01,2013-09-02 02:30:00,
2013-09-01 20:00:00,76.1,69.8,29.88,WNW,292,6.0,11.0,81,0.00,,---,0.00,VWS V14.01,2013-09-02 03:00:00,
2013-09-01 20:30:00,75.5,69.6,29.89,WNW,292,5.0,12.0,82,0.00,,---,0.00,VWS V14.01,2013-09-02 03:30:00,
2013-09-01 21:00:00,74.7,69.6,29.90,WNW,292,4.0,9.0,84,0.00,,---,0.00,VWS V14.01,2013-09-02 04:00:00,
2013-09-01 21:30:00,73.9,69.1,29.91,WNW,292,4.0,7.0,85,0.00,,---,0.00,VWS V14.01,2013-09-02 04:30:00,
2013-09-01 22:00:00,73.6,68.8,29.91,WNW,292,2.0,6.0,85,0.00,,---,0.00,VWS V14.01,2013-09-02 05:00:00,
2013-09-01 22:30:00,73.0,68.6,29.92,West,270,3.0,7.0,86,0.00,,---,0.00,VWS V14.01,2013-09-02 05:30:00,
2013-09-01 23:00:00,72.7,68.6,29.91,West,270,2.0,6.0,87,0.00,,---,0.00,VWS V14.01,2013-09-02 06:00:00,
2013-09-01 23:30:00,72.4,68.3,29.91,West,270,2.0,5.0,87,0.00,,---,0.00,VWS V14.01,2013-09-02 06:30:00,